sensor_id;sensor_type;location;lat;lon;timestamp;temperature;humidity
38726;DHT22;24474;48.906;8.808;2022-12-18T00:01:05;-7.10;99.90
38726;DHT22;24474;48.906;8.808;2022-12-18T00:03:38;-7.10;99.90
38726;DHT22;24474;48.906;8.808;2022-12-18T00:06:04;-7.10;99.90
38726;DHT22;24474;48.906;8.808;2022-12-18T00:08:30;-7.10;99.90
38726;DHT22;24474;48.906;8.808;2022-12-18T00:10:55;-7.10;99.90
38726;DHT22;24474;48.906;8.808;2022-12-18T00:13:28;-7.00;99.90
38726;DHT22;24474;48.906;8.808;2022-12-18T00:15:54;-7.00;99.90
38726;DHT22;24474;48.906;8.808;2022-12-18T00:18:19;-7.10;99.90
38726;DHT22;24474;48.906;8.808;2022-12-18T00:20:45;-7.10;99.90
38726;DHT22;24474;48.906;8.808;2022-12-18T00:23:11;-7.10;99.90
38726;DHT22;24474;48.906;8.808;2022-12-18T00:25:37;-7.10;99.90
38726;DHT22;24474;48.906;8.808;2022-12-18T00:28:03;-7.10;99.90
38726;DHT22;24474;48.906;8.808;2022-12-18T00:30:29;-7.20;99.90
38726;DHT22;24474;48.906;8.808;2022-12-18T00:32:55;-7.20;99.90
38726;DHT22;24474;48.906;8.808;2022-12-18T00:35:21;-7.10;99.90
38726;DHT22;24474;48.906;8.808;2022-12-18T00:37:47;-7.10;99.90
38726;DHT22;24474;48.906;8.808;2022-12-18T00:40:12;-7.10;99.90
38726;DHT22;24474;48.906;8.808;2022-12-18T00:42:38;-7.10;99.90
38726;DHT22;24474;48.906;8.808;2022-12-18T00:45:27;-7.10;99.90
38726;DHT22;24474;48.906;8.808;2022-12-18T00:47:54;-7.10;99.90
38726;DHT22;24474;48.906;8.808;2022-12-18T00:50:20;-7.10;99.90
38726;DHT22;24474;48.906;8.808;2022-12-18T00:52:46;-7.10;99.90
38726;DHT22;24474;48.906;8.808;2022-12-18T00:55:12;-7.10;99.90
38726;DHT22;24474;48.906;8.808;2022-12-18T00:57:38;-7.10;99.90
38726;DHT22;24474;48.906;8.808;2022-12-18T01:00:05;-7.10;99.90
38726;DHT22;24474;48.906;8.808;2022-12-18T01:02:31;-7.10;99.90
38726;DHT22;24474;48.906;8.808;2022-12-18T01:04:57;-7.10;99.90
38726;DHT22;24474;48.906;8.808;2022-12-18T01:07:23;-7.20;99.90
38726;DHT22;24474;48.906;8.808;2022-12-18T01:09:48;-7.20;99.90
38726;DHT22;24474;48.906;8.808;2022-12-18T01:12:14;-7.20;99.90
38726;DHT22;24474;48.906;8.808;2022-12-18T01:14:40;-7.30;99.90
38726;DHT22;24474;48.906;8.808;2022-12-18T01:17:05;-7.30;99.90
38726;DHT22;24474;48.906;8.808;2022-12-18T01:19:31;-7.30;99.90
38726;DHT22;24474;48.906;8.808;2022-12-18T01:21:57;-7.30;99.90
38726;DHT22;24474;48.906;8.808;2022-12-18T01:24:30;-7.20;99.90
38726;DHT22;24474;48.906;8.808;2022-12-18T01:26:55;-7.20;99.90
38726;DHT22;24474;48.906;8.808;2022-12-18T01:29:22;-7.20;99.90
38726;DHT22;24474;48.906;8.808;2022-12-18T01:31:48;-7.20;99.90
38726;DHT22;24474;48.906;8.808;2022-12-18T01:34:14;-7.20;99.90
38726;DHT22;24474;48.906;8.808;2022-12-18T01:36:40;-7.20;99.90
38726;DHT22;24474;48.906;8.808;2022-12-18T01:39:13;-7.20;99.90
38726;DHT22;24474;48.906;8.808;2022-12-18T01:41:40;-7.20;99.90
38726;DHT22;24474;48.906;8.808;2022-12-18T01:49:54;-7.10;99.90
38726;DHT22;24474;48.906;8.808;2022-12-18T01:52:21;-7.10;99.90
38726;DHT22;24474;48.906;8.808;2022-12-18T01:54:49;-7.10;99.90
38726;DHT22;24474;48.906;8.808;2022-12-18T01:57:15;-7.00;99.90
38726;DHT22;24474;48.906;8.808;2022-12-18T01:59:42;-7.00;99.90
38726;DHT22;24474;48.906;8.808;2022-12-18T02:02:11;-6.90;99.90
38726;DHT22;24474;48.906;8.808;2022-12-18T02:04:37;-6.90;99.90
38726;DHT22;24474;48.906;8.808;2022-12-18T02:10:00;-6.80;99.90
38726;DHT22;24474;48.906;8.808;2022-12-18T02:12:51;-6.80;99.90
38726;DHT22;24474;48.906;8.808;2022-12-18T02:18:27;-6.80;99.90
38726;DHT22;24474;48.906;8.808;2022-12-18T02:20:59;-6.80;99.90
38726;DHT22;24474;48.906;8.808;2022-12-18T02:23:37;-6.80;99.90
38726;DHT22;24474;48.906;8.808;2022-12-18T02:26:15;-6.80;99.90
38726;DHT22;24474;48.906;8.808;2022-12-18T02:29:21;-6.80;99.90
38726;DHT22;24474;48.906;8.808;2022-12-18T02:31:58;-6.80;99.90
38726;DHT22;24474;48.906;8.808;2022-12-18T02:34:28;-6.80;99.90
38726;DHT22;24474;48.906;8.808;2022-12-18T02:36:55;-6.80;99.90
38726;DHT22;24474;48.906;8.808;2022-12-18T02:39:25;-6.80;99.90
38726;DHT22;24474;48.906;8.808;2022-12-18T02:41:52;-6.80;99.90
38726;DHT22;24474;48.906;8.808;2022-12-18T02:44:17;-6.70;99.90
38726;DHT22;24474;48.906;8.808;2022-12-18T02:46:46;-6.80;99.90
38726;DHT22;24474;48.906;8.808;2022-12-18T02:54:41;-6.80;99.90
38726;DHT22;24474;48.906;8.808;2022-12-18T03:05:22;-6.70;99.90
38726;DHT22;24474;48.906;8.808;2022-12-18T03:07:56;-6.70;99.90
38726;DHT22;24474;48.906;8.808;2022-12-18T03:10:33;-6.80;99.90
38726;DHT22;24474;48.906;8.808;2022-12-18T03:13:04;-6.80;99.90
38726;DHT22;24474;48.906;8.808;2022-12-18T03:15:37;-6.80;99.90
38726;DHT22;24474;48.906;8.808;2022-12-18T03:18:09;-6.80;99.90
38726;DHT22;24474;48.906;8.808;2022-12-18T03:20:38;-6.90;99.90
38726;DHT22;24474;48.906;8.808;2022-12-18T03:23:15;-6.90;99.90
38726;DHT22;24474;48.906;8.808;2022-12-18T03:25:44;-6.90;99.90
38726;DHT22;24474;48.906;8.808;2022-12-18T03:28:13;-7.00;99.90
38726;DHT22;24474;48.906;8.808;2022-12-18T03:30:41;-7.00;99.90
38726;DHT22;24474;48.906;8.808;2022-12-18T03:33:12;-7.00;99.90
38726;DHT22;24474;48.906;8.808;2022-12-18T03:35:42;-7.00;99.90
38726;DHT22;24474;48.906;8.808;2022-12-18T03:38:09;-7.00;99.90
38726;DHT22;24474;48.906;8.808;2022-12-18T03:46:06;-7.10;99.90
38726;DHT22;24474;48.906;8.808;2022-12-18T03:48:38;-7.20;99.90
38726;DHT22;24474;48.906;8.808;2022-12-18T03:51:26;-7.10;99.90
38726;DHT22;24474;48.906;8.808;2022-12-18T03:54:02;-7.20;99.90
38726;DHT22;24474;48.906;8.808;2022-12-18T03:56:35;-7.20;99.90
38726;DHT22;24474;48.906;8.808;2022-12-18T03:59:03;-7.20;99.90
38726;DHT22;24474;48.906;8.808;2022-12-18T04:01:32;-7.20;99.90
38726;DHT22;24474;48.906;8.808;2022-12-18T04:04:00;-7.20;99.90
38726;DHT22;24474;48.906;8.808;2022-12-18T04:06:30;-7.20;99.90
38726;DHT22;24474;48.906;8.808;2022-12-18T04:08:57;-7.20;99.90
38726;DHT22;24474;48.906;8.808;2022-12-18T04:11:24;-7.20;99.90
38726;DHT22;24474;48.906;8.808;2022-12-18T04:13:49;-7.20;99.90
38726;DHT22;24474;48.906;8.808;2022-12-18T04:16:15;-7.20;99.90
38726;DHT22;24474;48.906;8.808;2022-12-18T04:18:41;-7.30;99.90
38726;DHT22;24474;48.906;8.808;2022-12-18T04:21:06;-7.20;99.90
38726;DHT22;24474;48.906;8.808;2022-12-18T04:23:32;-7.30;99.90
38726;DHT22;24474;48.906;8.808;2022-12-18T04:25:57;-7.30;99.90
38726;DHT22;24474;48.906;8.808;2022-12-18T04:28:23;-7.30;99.90
38726;DHT22;24474;48.906;8.808;2022-12-18T04:30:49;-7.30;99.90
38726;DHT22;24474;48.906;8.808;2022-12-18T04:33:15;-7.40;99.90
38726;DHT22;24474;48.906;8.808;2022-12-18T04:35:41;-7.30;99.90
38726;DHT22;24474;48.906;8.808;2022-12-18T04:38:07;-7.30;99.90
38726;DHT22;24474;48.906;8.808;2022-12-18T04:40:37;-7.30;99.90
38726;DHT22;24474;48.906;8.808;2022-12-18T04:43:03;-7.30;99.90
38726;DHT22;24474;48.906;8.808;2022-12-18T04:45:32;-7.30;99.90
38726;DHT22;24474;48.906;8.808;2022-12-18T04:47:59;-7.40;99.90
38726;DHT22;24474;48.906;8.808;2022-12-18T04:50:25;-7.40;99.90
38726;DHT22;24474;48.906;8.808;2022-12-18T04:52:50;-7.40;99.90
38726;DHT22;24474;48.906;8.808;2022-12-18T04:55:16;-7.40;99.90
38726;DHT22;24474;48.906;8.808;2022-12-18T04:57:42;-7.40;99.90
38726;DHT22;24474;48.906;8.808;2022-12-18T05:00:08;-7.30;99.90
38726;DHT22;24474;48.906;8.808;2022-12-18T05:02:33;-7.30;99.90
38726;DHT22;24474;48.906;8.808;2022-12-18T05:04:59;-7.20;99.90
38726;DHT22;24474;48.906;8.808;2022-12-18T05:07:25;-7.20;99.90
38726;DHT22;24474;48.906;8.808;2022-12-18T05:09:51;-7.20;99.90
38726;DHT22;24474;48.906;8.808;2022-12-18T05:12:16;-7.20;99.90
38726;DHT22;24474;48.906;8.808;2022-12-18T05:14:42;-7.20;99.90
38726;DHT22;24474;48.906;8.808;2022-12-18T05:17:08;-7.30;99.90
38726;DHT22;24474;48.906;8.808;2022-12-18T05:19:33;-7.30;99.90
38726;DHT22;24474;48.906;8.808;2022-12-18T05:21:59;-7.30;99.90
38726;DHT22;24474;48.906;8.808;2022-12-18T05:24:32;-7.30;99.90
38726;DHT22;24474;48.906;8.808;2022-12-18T05:26:58;-7.30;99.90
38726;DHT22;24474;48.906;8.808;2022-12-18T05:29:24;-7.30;99.90
38726;DHT22;24474;48.906;8.808;2022-12-18T05:31:49;-7.20;99.90
38726;DHT22;24474;48.906;8.808;2022-12-18T05:34:15;-7.30;99.90
38726;DHT22;24474;48.906;8.808;2022-12-18T05:36:41;-7.30;99.90
38726;DHT22;24474;48.906;8.808;2022-12-18T05:39:07;-7.30;99.90
38726;DHT22;24474;48.906;8.808;2022-12-18T05:41:32;-7.30;99.90
38726;DHT22;24474;48.906;8.808;2022-12-18T05:43:59;-7.30;99.90
38726;DHT22;24474;48.906;8.808;2022-12-18T05:46:25;-7.30;99.90
38726;DHT22;24474;48.906;8.808;2022-12-18T05:48:51;-7.30;99.90
38726;DHT22;24474;48.906;8.808;2022-12-18T05:51:19;-7.30;99.90
38726;DHT22;24474;48.906;8.808;2022-12-18T05:53:45;-7.40;99.90
38726;DHT22;24474;48.906;8.808;2022-12-18T05:56:13;-7.30;99.90
38726;DHT22;24474;48.906;8.808;2022-12-18T05:58:40;-7.30;99.90
38726;DHT22;24474;48.906;8.808;2022-12-18T06:01:08;-7.40;99.90
38726;DHT22;24474;48.906;8.808;2022-12-18T06:03:34;-7.30;99.90
38726;DHT22;24474;48.906;8.808;2022-12-18T06:06:00;-7.30;99.90
38726;DHT22;24474;48.906;8.808;2022-12-18T06:08:29;-7.30;99.90
38726;DHT22;24474;48.906;8.808;2022-12-18T06:10:55;-7.30;99.90
38726;DHT22;24474;48.906;8.808;2022-12-18T06:13:21;-7.40;99.90
38726;DHT22;24474;48.906;8.808;2022-12-18T06:15:47;-7.40;99.90
38726;DHT22;24474;48.906;8.808;2022-12-18T06:18:12;-7.40;99.90
38726;DHT22;24474;48.906;8.808;2022-12-18T06:20:39;-7.40;99.90
38726;DHT22;24474;48.906;8.808;2022-12-18T06:23:07;-7.40;99.90
38726;DHT22;24474;48.906;8.808;2022-12-18T06:25:33;-7.40;99.90
38726;DHT22;24474;48.906;8.808;2022-12-18T06:27:59;-7.50;99.90
38726;DHT22;24474;48.906;8.808;2022-12-18T06:30:25;-7.50;99.90
38726;DHT22;24474;48.906;8.808;2022-12-18T06:32:50;-7.50;99.90
38726;DHT22;24474;48.906;8.808;2022-12-18T06:35:16;-7.50;99.90
38726;DHT22;24474;48.906;8.808;2022-12-18T06:37:42;-7.50;99.90
38726;DHT22;24474;48.906;8.808;2022-12-18T06:40:11;-7.60;99.90
38726;DHT22;24474;48.906;8.808;2022-12-18T06:42:36;-7.60;99.90
38726;DHT22;24474;48.906;8.808;2022-12-18T06:45:02;-7.60;99.90
38726;DHT22;24474;48.906;8.808;2022-12-18T06:47:28;-7.60;99.90
38726;DHT22;24474;48.906;8.808;2022-12-18T06:49:53;-7.60;99.90
38726;DHT22;24474;48.906;8.808;2022-12-18T06:52:19;-7.60;99.90
38726;DHT22;24474;48.906;8.808;2022-12-18T06:54:47;-7.60;99.90
38726;DHT22;24474;48.906;8.808;2022-12-18T06:57:12;-7.60;99.90
38726;DHT22;24474;48.906;8.808;2022-12-18T06:59:38;-7.60;99.90
38726;DHT22;24474;48.906;8.808;2022-12-18T07:02:03;-7.60;99.90
38726;DHT22;24474;48.906;8.808;2022-12-18T07:04:30;-7.60;99.90
38726;DHT22;24474;48.906;8.808;2022-12-18T07:06:56;-7.60;99.90
38726;DHT22;24474;48.906;8.808;2022-12-18T07:09:23;-7.50;99.90
38726;DHT22;24474;48.906;8.808;2022-12-18T07:11:49;-7.60;99.90
38726;DHT22;24474;48.906;8.808;2022-12-18T07:14:14;-7.60;99.90
38726;DHT22;24474;48.906;8.808;2022-12-18T07:16:40;-7.60;99.90
38726;DHT22;24474;48.906;8.808;2022-12-18T07:19:06;-7.60;99.90
38726;DHT22;24474;48.906;8.808;2022-12-18T07:21:31;-7.60;99.90
38726;DHT22;24474;48.906;8.808;2022-12-18T07:23:57;-7.60;99.90
38726;DHT22;24474;48.906;8.808;2022-12-18T07:26:24;-7.60;99.90
38726;DHT22;24474;48.906;8.808;2022-12-18T07:28:55;-7.50;99.90
38726;DHT22;24474;48.906;8.808;2022-12-18T07:31:21;-7.60;99.90
38726;DHT22;24474;48.906;8.808;2022-12-18T07:33:47;-7.60;99.90
38726;DHT22;24474;48.906;8.808;2022-12-18T07:36:13;-7.60;99.90
38726;DHT22;24474;48.906;8.808;2022-12-18T07:38:40;-7.60;99.90
38726;DHT22;24474;48.906;8.808;2022-12-18T07:41:15;-7.60;99.90
38726;DHT22;24474;48.906;8.808;2022-12-18T07:43:41;-7.70;99.90
38726;DHT22;24474;48.906;8.808;2022-12-18T07:46:07;-7.70;99.90
38726;DHT22;24474;48.906;8.808;2022-12-18T07:48:33;-7.70;99.90
38726;DHT22;24474;48.906;8.808;2022-12-18T07:51:05;-7.80;99.90
38726;DHT22;24474;48.906;8.808;2022-12-18T07:53:33;-7.80;99.90
38726;DHT22;24474;48.906;8.808;2022-12-18T07:56:01;-7.80;99.90
38726;DHT22;24474;48.906;8.808;2022-12-18T07:58:28;-7.70;99.90
38726;DHT22;24474;48.906;8.808;2022-12-18T08:00:54;-7.70;99.90
38726;DHT22;24474;48.906;8.808;2022-12-18T08:03:27;-7.70;99.90
38726;DHT22;24474;48.906;8.808;2022-12-18T08:05:52;-7.70;99.90
38726;DHT22;24474;48.906;8.808;2022-12-18T08:08:18;-7.70;99.90
38726;DHT22;24474;48.906;8.808;2022-12-18T08:10:44;-7.60;99.90
38726;DHT22;24474;48.906;8.808;2022-12-18T08:13:09;-7.60;99.90
38726;DHT22;24474;48.906;8.808;2022-12-18T08:15:35;-7.60;99.90
38726;DHT22;24474;48.906;8.808;2022-12-18T08:18:01;-7.60;99.90
38726;DHT22;24474;48.906;8.808;2022-12-18T08:20:26;-7.60;99.90
38726;DHT22;24474;48.906;8.808;2022-12-18T08:22:55;-7.60;99.90
38726;DHT22;24474;48.906;8.808;2022-12-18T08:25:21;-7.60;99.90
38726;DHT22;24474;48.906;8.808;2022-12-18T08:27:46;-7.60;99.90
38726;DHT22;24474;48.906;8.808;2022-12-18T08:30:12;-7.50;99.90
38726;DHT22;24474;48.906;8.808;2022-12-18T08:32:38;-7.60;99.90
38726;DHT22;24474;48.906;8.808;2022-12-18T08:35:03;-7.50;99.90
38726;DHT22;24474;48.906;8.808;2022-12-18T08:37:29;-7.50;99.90
38726;DHT22;24474;48.906;8.808;2022-12-18T08:39:56;-7.40;99.90
38726;DHT22;24474;48.906;8.808;2022-12-18T08:42:22;-7.40;99.90
38726;DHT22;24474;48.906;8.808;2022-12-18T08:45:06;-7.40;99.90
38726;DHT22;24474;48.906;8.808;2022-12-18T08:47:32;-7.30;99.90
38726;DHT22;24474;48.906;8.808;2022-12-18T08:49:57;-7.30;99.90
38726;DHT22;24474;48.906;8.808;2022-12-18T08:52:23;-7.20;99.90
38726;DHT22;24474;48.906;8.808;2022-12-18T08:54:49;-7.20;99.90
38726;DHT22;24474;48.906;8.808;2022-12-18T08:57:15;-7.20;99.90
38726;DHT22;24474;48.906;8.808;2022-12-18T08:59:41;-7.10;99.90
38726;DHT22;24474;48.906;8.808;2022-12-18T09:02:09;-7.10;99.90
38726;DHT22;24474;48.906;8.808;2022-12-18T09:04:35;-7.10;99.90
38726;DHT22;24474;48.906;8.808;2022-12-18T09:07:01;-7.00;99.90
38726;DHT22;24474;48.906;8.808;2022-12-18T09:09:27;-7.00;99.90
38726;DHT22;24474;48.906;8.808;2022-12-18T09:11:52;-6.90;99.90
38726;DHT22;24474;48.906;8.808;2022-12-18T09:14:18;-6.90;99.90
38726;DHT22;24474;48.906;8.808;2022-12-18T09:16:43;-6.80;99.90
38726;DHT22;24474;48.906;8.808;2022-12-18T09:19:09;-6.80;99.90
38726;DHT22;24474;48.906;8.808;2022-12-18T09:21:35;-6.80;99.90
38726;DHT22;24474;48.906;8.808;2022-12-18T09:24:01;-6.70;99.90
38726;DHT22;24474;48.906;8.808;2022-12-18T09:26:27;-6.60;99.90
38726;DHT22;24474;48.906;8.808;2022-12-18T09:28:55;-6.60;99.90
38726;DHT22;24474;48.906;8.808;2022-12-18T09:31:22;-6.60;99.90
38726;DHT22;24474;48.906;8.808;2022-12-18T09:33:48;-6.50;99.90
38726;DHT22;24474;48.906;8.808;2022-12-18T09:36:15;-6.40;99.90
38726;DHT22;24474;48.906;8.808;2022-12-18T09:38:45;-6.30;99.90
38726;DHT22;24474;48.906;8.808;2022-12-18T09:44:13;-6.20;99.90
38726;DHT22;24474;48.906;8.808;2022-12-18T09:46:45;-6.10;99.90
38726;DHT22;24474;48.906;8.808;2022-12-18T09:49:16;-6.10;99.90
38726;DHT22;24474;48.906;8.808;2022-12-18T09:52:04;-6.00;99.90
38726;DHT22;24474;48.906;8.808;2022-12-18T09:54:43;-6.00;99.90
38726;DHT22;24474;48.906;8.808;2022-12-18T09:57:19;-5.90;99.90
38726;DHT22;24474;48.906;8.808;2022-12-18T10:00:06;-5.60;99.90
38726;DHT22;24474;48.906;8.808;2022-12-18T10:02:34;-5.70;99.90
38726;DHT22;24474;48.906;8.808;2022-12-18T10:05:06;-5.70;99.90
38726;DHT22;24474;48.906;8.808;2022-12-18T10:10:26;-5.50;99.90
38726;DHT22;24474;48.906;8.808;2022-12-18T10:13:21;-5.40;99.90
38726;DHT22;24474;48.906;8.808;2022-12-18T10:16:08;-5.40;99.90
38726;DHT22;24474;48.906;8.808;2022-12-18T10:27:16;-5.00;99.90
38726;DHT22;24474;48.906;8.808;2022-12-18T10:29:44;-4.90;99.90
38726;DHT22;24474;48.906;8.808;2022-12-18T10:32:15;-4.90;99.90
38726;DHT22;24474;48.906;8.808;2022-12-18T10:34:48;-4.80;99.90
38726;DHT22;24474;48.906;8.808;2022-12-18T10:37:24;-4.70;99.90
38726;DHT22;24474;48.906;8.808;2022-12-18T10:40:06;-4.70;99.90
38726;DHT22;24474;48.906;8.808;2022-12-18T10:42:32;-4.60;99.90
38726;DHT22;24474;48.906;8.808;2022-12-18T10:45:07;-4.60;99.90
38726;DHT22;24474;48.906;8.808;2022-12-18T10:47:34;-4.50;99.90
38726;DHT22;24474;48.906;8.808;2022-12-18T10:49:59;-4.40;99.90
38726;DHT22;24474;48.906;8.808;2022-12-18T10:52:26;-4.30;99.90
38726;DHT22;24474;48.906;8.808;2022-12-18T10:55:16;-4.20;99.90
38726;DHT22;24474;48.906;8.808;2022-12-18T10:57:42;-4.20;99.90
38726;DHT22;24474;48.906;8.808;2022-12-18T11:02:46;-4.00;99.90
38726;DHT22;24474;48.906;8.808;2022-12-18T11:05:32;-3.90;99.90
38726;DHT22;24474;48.906;8.808;2022-12-18T11:08:00;-3.80;99.90
38726;DHT22;24474;48.906;8.808;2022-12-18T11:10:32;-3.80;99.90
38726;DHT22;24474;48.906;8.808;2022-12-18T11:13:17;-3.70;99.90
38726;DHT22;24474;48.906;8.808;2022-12-18T11:15:44;-3.60;99.90
38726;DHT22;24474;48.906;8.808;2022-12-18T11:18:26;-3.50;99.90
38726;DHT22;24474;48.906;8.808;2022-12-18T11:21:05;-3.50;99.90
38726;DHT22;24474;48.906;8.808;2022-12-18T11:23:32;-3.50;99.90
38726;DHT22;24474;48.906;8.808;2022-12-18T11:26:00;-3.40;99.90
38726;DHT22;24474;48.906;8.808;2022-12-18T11:28:40;-3.40;99.90
38726;DHT22;24474;48.906;8.808;2022-12-18T11:36:38;-3.30;99.90
38726;DHT22;24474;48.906;8.808;2022-12-18T11:39:44;-3.30;99.90
38726;DHT22;24474;48.906;8.808;2022-12-18T11:47:37;-3.10;99.90
38726;DHT22;24474;48.906;8.808;2022-12-18T11:52:54;-3.00;99.90
38726;DHT22;24474;48.906;8.808;2022-12-18T12:00:23;-3.00;99.90
38726;DHT22;24474;48.906;8.808;2022-12-18T12:03:00;-3.00;99.90
38726;DHT22;24474;48.906;8.808;2022-12-18T12:08:34;-2.90;99.90
38726;DHT22;24474;48.906;8.808;2022-12-18T12:16:58;-2.80;99.90
38726;DHT22;24474;48.906;8.808;2022-12-18T12:20:18;-2.70;99.90
38726;DHT22;24474;48.906;8.808;2022-12-18T12:22:39;-2.70;99.90
38726;DHT22;24474;48.906;8.808;2022-12-18T12:25:20;-2.70;99.90
38726;DHT22;24474;48.906;8.808;2022-12-18T12:28:28;-2.60;99.90
38726;DHT22;24474;48.906;8.808;2022-12-18T12:38:59;-2.60;99.90
38726;DHT22;24474;48.906;8.808;2022-12-18T12:41:30;-2.60;99.90
38726;DHT22;24474;48.906;8.808;2022-12-18T12:44:23;-2.60;99.90
38726;DHT22;24474;48.906;8.808;2022-12-18T12:46:50;-2.60;99.90
38726;DHT22;24474;48.906;8.808;2022-12-18T12:49:20;-2.60;99.90
38726;DHT22;24474;48.906;8.808;2022-12-18T12:51:53;-2.60;99.90
38726;DHT22;24474;48.906;8.808;2022-12-18T12:54:23;-2.60;99.90
38726;DHT22;24474;48.906;8.808;2022-12-18T13:00:10;-2.60;99.90
38726;DHT22;24474;48.906;8.808;2022-12-18T13:05:56;-2.60;99.90
38726;DHT22;24474;48.906;8.808;2022-12-18T13:08:25;-2.60;99.90
38726;DHT22;24474;48.906;8.808;2022-12-18T13:10:53;-2.60;99.90
38726;DHT22;24474;48.906;8.808;2022-12-18T13:13:54;-2.60;99.90
38726;DHT22;24474;48.906;8.808;2022-12-18T13:16:22;-2.60;99.90
38726;DHT22;24474;48.906;8.808;2022-12-18T13:18:50;-2.60;99.90
38726;DHT22;24474;48.906;8.808;2022-12-18T13:21:36;-2.50;99.90
38726;DHT22;24474;48.906;8.808;2022-12-18T13:24:25;-2.50;99.90
38726;DHT22;24474;48.906;8.808;2022-12-18T13:26:51;-2.50;99.90
38726;DHT22;24474;48.906;8.808;2022-12-18T13:29:46;-2.50;99.90
38726;DHT22;24474;48.906;8.808;2022-12-18T13:32:40;-2.50;99.90
38726;DHT22;24474;48.906;8.808;2022-12-18T13:37:54;-2.50;99.90
38726;DHT22;24474;48.906;8.808;2022-12-18T13:46:28;-2.50;99.90
38726;DHT22;24474;48.906;8.808;2022-12-18T13:49:03;-2.50;99.90
38726;DHT22;24474;48.906;8.808;2022-12-18T13:51:35;-2.50;99.90
38726;DHT22;24474;48.906;8.808;2022-12-18T13:54:13;-2.50;99.90
38726;DHT22;24474;48.906;8.808;2022-12-18T13:56:45;-2.50;99.90
38726;DHT22;24474;48.906;8.808;2022-12-18T14:01:59;-2.50;99.90
38726;DHT22;24474;48.906;8.808;2022-12-18T14:04:30;-2.50;99.90
38726;DHT22;24474;48.906;8.808;2022-12-18T14:07:22;-2.50;99.90
38726;DHT22;24474;48.906;8.808;2022-12-18T14:09:56;-2.50;99.90
38726;DHT22;24474;48.906;8.808;2022-12-18T14:12:25;-2.50;99.90
38726;DHT22;24474;48.906;8.808;2022-12-18T14:17:50;-2.50;99.90
38726;DHT22;24474;48.906;8.808;2022-12-18T14:20:17;-2.50;99.90
38726;DHT22;24474;48.906;8.808;2022-12-18T14:22:48;-2.50;99.90
38726;DHT22;24474;48.906;8.808;2022-12-18T14:25:30;-2.50;99.90
38726;DHT22;24474;48.906;8.808;2022-12-18T14:28:18;-2.50;99.90
38726;DHT22;24474;48.906;8.808;2022-12-18T14:31:01;-2.50;99.90
38726;DHT22;24474;48.906;8.808;2022-12-18T14:33:29;-2.50;99.90
38726;DHT22;24474;48.906;8.808;2022-12-18T14:35:59;-2.50;99.90
38726;DHT22;24474;48.906;8.808;2022-12-18T14:41:01;-2.60;99.90
38726;DHT22;24474;48.906;8.808;2022-12-18T14:43:31;-2.60;99.90
38726;DHT22;24474;48.906;8.808;2022-12-18T14:52:00;-2.50;99.90
38726;DHT22;24474;48.906;8.808;2022-12-18T14:54:28;-2.60;99.90
38726;DHT22;24474;48.906;8.808;2022-12-18T14:57:39;-2.60;99.90
38726;DHT22;24474;48.906;8.808;2022-12-18T14:59:40;-2.60;99.90
38726;DHT22;24474;48.906;8.808;2022-12-18T15:02:25;-2.60;99.90
38726;DHT22;24474;48.906;8.808;2022-12-18T15:05:16;-2.70;99.90
38726;DHT22;24474;48.906;8.808;2022-12-18T15:07:48;-2.60;99.90
38726;DHT22;24474;48.906;8.808;2022-12-18T15:10:26;0.10;99.90
38726;DHT22;24474;48.906;8.808;2022-12-18T15:20:48;-2.80;99.90
38726;DHT22;24474;48.906;8.808;2022-12-18T15:23:18;-2.70;99.90
38726;DHT22;24474;48.906;8.808;2022-12-18T15:25:46;-2.70;99.90
38726;DHT22;24474;48.906;8.808;2022-12-18T15:28:50;-2.80;99.90
38726;DHT22;24474;48.906;8.808;2022-12-18T15:33:43;-2.80;99.90
38726;DHT22;24474;48.906;8.808;2022-12-18T15:36:16;-2.70;99.90
38726;DHT22;24474;48.906;8.808;2022-12-18T15:38:45;-2.80;99.90
38726;DHT22;24474;48.906;8.808;2022-12-18T15:41:15;-2.80;99.90
38726;DHT22;24474;48.906;8.808;2022-12-18T15:43:41;-2.80;99.90
38726;DHT22;24474;48.906;8.808;2022-12-18T15:46:20;-2.80;99.90
38726;DHT22;24474;48.906;8.808;2022-12-18T15:48:48;-2.80;99.90
38726;DHT22;24474;48.906;8.808;2022-12-18T15:51:23;-2.60;99.90
38726;DHT22;24474;48.906;8.808;2022-12-18T15:53:52;-2.80;99.90
38726;DHT22;24474;48.906;8.808;2022-12-18T15:56:19;-2.80;99.90
38726;DHT22;24474;48.906;8.808;2022-12-18T15:59:30;-2.80;99.90
38726;DHT22;24474;48.906;8.808;2022-12-18T16:01:56;-2.70;99.90
38726;DHT22;24474;48.906;8.808;2022-12-18T16:04:22;-2.80;99.90
38726;DHT22;24474;48.906;8.808;2022-12-18T16:06:49;-2.80;99.90
38726;DHT22;24474;48.906;8.808;2022-12-18T16:09:18;-2.80;99.90
38726;DHT22;24474;48.906;8.808;2022-12-18T16:11:44;-2.80;99.90
38726;DHT22;24474;48.906;8.808;2022-12-18T16:14:19;-3.20;99.90
38726;DHT22;24474;48.906;8.808;2022-12-18T16:16:47;-2.80;99.90
38726;DHT22;24474;48.906;8.808;2022-12-18T16:19:13;-2.70;99.90
38726;DHT22;24474;48.906;8.808;2022-12-18T16:21:39;-2.70;99.90
38726;DHT22;24474;48.906;8.808;2022-12-18T16:24:08;-2.80;99.90
38726;DHT22;24474;48.906;8.808;2022-12-18T16:26:37;-2.70;99.90
38726;DHT22;24474;48.906;8.808;2022-12-18T16:29:04;-2.40;99.90
38726;DHT22;24474;48.906;8.808;2022-12-18T16:31:30;-2.70;99.90
38726;DHT22;24474;48.906;8.808;2022-12-18T16:34:24;-2.70;99.90
38726;DHT22;24474;48.906;8.808;2022-12-18T16:36:56;-2.60;99.90
38726;DHT22;24474;48.906;8.808;2022-12-18T16:39:25;-2.60;99.90
38726;DHT22;24474;48.906;8.808;2022-12-18T16:41:51;-2.70;99.90
38726;DHT22;24474;48.906;8.808;2022-12-18T16:44:25;-4.50;99.90
38726;DHT22;24474;48.906;8.808;2022-12-18T16:46:50;-2.60;99.90
38726;DHT22;24474;48.906;8.808;2022-12-18T16:49:17;-2.50;99.90
38726;DHT22;24474;48.906;8.808;2022-12-18T16:51:46;-2.50;99.90
38726;DHT22;24474;48.906;8.808;2022-12-18T16:54:12;-2.40;99.90
38726;DHT22;24474;48.906;8.808;2022-12-18T16:56:40;-2.50;99.90
38726;DHT22;24474;48.906;8.808;2022-12-18T16:59:10;-0.90;99.90
38726;DHT22;24474;48.906;8.808;2022-12-18T17:01:38;-2.40;99.90
38726;DHT22;24474;48.906;8.808;2022-12-18T17:04:09;-2.40;99.90
38726;DHT22;24474;48.906;8.808;2022-12-18T17:06:39;-2.40;99.90
38726;DHT22;24474;48.906;8.808;2022-12-18T17:09:10;-2.30;99.90
38726;DHT22;24474;48.906;8.808;2022-12-18T17:11:36;-0.30;99.90
38726;DHT22;24474;48.906;8.808;2022-12-18T17:14:11;-1.00;99.90
38726;DHT22;24474;48.906;8.808;2022-12-18T17:16:39;-2.40;99.90
38726;DHT22;24474;48.906;8.808;2022-12-18T17:19:05;-2.30;99.90
38726;DHT22;24474;48.906;8.808;2022-12-18T17:21:34;-0.80;99.90
38726;DHT22;24474;48.906;8.808;2022-12-18T17:24:00;-2.20;99.90
38726;DHT22;24474;48.906;8.808;2022-12-18T17:26:28;-2.20;99.90
38726;DHT22;24474;48.906;8.808;2022-12-18T17:28:57;-2.20;99.90
38726;DHT22;24474;48.906;8.808;2022-12-18T17:31:25;-2.10;99.90
38726;DHT22;24474;48.906;8.808;2022-12-18T17:33:51;-2.20;99.90
38726;DHT22;24474;48.906;8.808;2022-12-18T17:36:18;-2.20;99.90
38726;DHT22;24474;48.906;8.808;2022-12-18T17:38:57;-2.20;99.90
38726;DHT22;24474;48.906;8.808;2022-12-18T17:41:24;-2.20;99.90
38726;DHT22;24474;48.906;8.808;2022-12-18T17:43:53;-2.10;99.90
38726;DHT22;24474;48.906;8.808;2022-12-18T17:46:20;-2.20;99.90
38726;DHT22;24474;48.906;8.808;2022-12-18T17:48:46;-2.20;99.90
38726;DHT22;24474;48.906;8.808;2022-12-18T17:51:14;-2.10;99.90